Time;durP1;ratioP1;P1;durP2;ratioP2;P2;SDS_P1;SDS_P2;PMS_P1;PMS_P2;Temp;Humidity;BMP_temperature;BMP_pressure;BME280_temperature;BME280_humidity;BME280_pressure;Samples;Min_cycle;Max_cycle;Signal;HPM_P1;HPM_P2
2022/04/01 00:02:06;;;;;;;;;;;4.10;99.90;;;;;;4995360;28;19950;-87
2022/04/01 00:04:33;;;;;;;;;;;2.40;99.90;;;;;;4995351;28;19930;-87
2022/04/01 00:06:59;;;;;;;;;;;2.40;99.90;;;;;;4995121;28;19981;-88
2022/04/01 00:09:26;;;;;;;;;;;3.80;99.90;;;;;;4980814;28;20373;-88
2022/04/01 00:11:54;;;;;;;;;;;4.40;99.90;;;;;;4976355;28;19978;-86
2022/04/01 00:14:21;;;;;;;;;;;2.40;99.90;;;;;;4976026;28;19973;-88
2022/04/01 00:16:48;;;;;;;;;;;1.90;99.90;;;;;;4975822;28;19993;-86
2022/04/01 00:19:15;;;;;;;;;;;2.40;99.90;;;;;;4987603;28;19973;-88
2022/04/01 00:21:41;;;;;;;;;;;2.40;99.90;;;;;;4995218;28;19933;-87
2022/04/01 00:24:08;;;;;;;;;;;4.10;99.90;;;;;;4994838;28;19932;-88
2022/04/01 00:26:35;;;;;;;;;;;2.90;99.90;;;;;;4995219;28;19971;-87
2022/04/01 00:29:14;;;;;;;;;;;2.40;99.90;;;;;;4984173;28;19981;-87
2022/04/01 00:31:41;;;;;;;;;;;2.80;99.90;;;;;;4975309;28;19962;-88
2022/04/01 00:34:17;;;;;;;;;;;2.50;99.90;;;;;;4975899;28;20281;-87
2022/04/01 00:36:45;;;;;;;;;;;2.20;99.90;;;;;;4975573;28;19961;-87
2022/04/01 00:39:12;;;;;;;;;;;2.40;99.90;;;;;;4986639;28;19926;-88
2022/04/01 00:41:39;;;;;;;;;;;2.20;99.90;;;;;;4994868;28;19933;-87
2022/04/01 00:44:15;;;;;;;;;;;4.40;99.90;;;;;;4995064;28;19980;-88
2022/04/01 00:46:42;;;;;;;;;;;2.30;99.90;;;;;;4994557;28;20368;-88
2022/04/01 00:49:08;;;;;;;;;;;2.90;99.90;;;;;;4984301;28;19926;-88
2022/04/01 00:51:35;;;;;;;;;;;2.30;99.90;;;;;;4975971;28;19981;-87
2022/04/01 00:54:02;;;;;;;;;;;3.50;99.90;;;;;;4979145;28;20330;-87
2022/04/01 00:56:34;;;;;;;;;;;2.40;99.90;;;;;;4981328;28;19937;-86
2022/04/01 00:59:02;;;;;;;;;;;2.50;99.90;;;;;;4990897;28;19932;-86
2022/04/01 01:01:31;;;;;;;;;;;4.70;99.90;;;;;;5001303;28;19933;-86
2022/04/01 01:03:58;;;;;;;;;;;2.70;99.90;;;;;;4995501;28;20013;-87
2022/04/01 01:06:25;;;;;;;;;;;3.90;99.90;;;;;;4994651;28;20277;-87
2022/04/01 01:08:52;;;;;;;;;;;4.30;99.90;;;;;;4991787;28;19997;-87
2022/04/01 01:11:20;;;;;;;;;;;2.50;99.90;;;;;;4994469;28;19933;-86
2022/04/01 01:13:47;;;;;;;;;;;2.40;99.90;;;;;;4994571;28;20396;-86
2022/04/01 01:16:15;;;;;;;;;;;2.40;99.90;;;;;;4994352;28;19996;-85
2022/04/01 01:18:43;;;;;;;;;;;2.40;99.90;;;;;;4988434;28;19926;-86
2022/04/01 01:21:10;;;;;;;;;;;2.30;99.90;;;;;;4975803;28;19934;-86
2022/04/01 01:23:39;;;;;;;;;;;2.30;99.90;;;;;;4994211;28;19933;-86
2022/04/01 01:26:07;;;;;;;;;;;2.30;99.90;;;;;;4994517;28;20024;-87
2022/04/01 01:28:34;;;;;;;;;;;3.50;99.90;;;;;;4989597;28;19980;-86
2022/04/01 01:31:01;;;;;;;;;;;3.40;99.90;;;;;;4980331;28;19930;-87
2022/04/01 01:33:28;;;;;;;;;;;2.30;99.90;;;;;;4993248;28;19926;-85
2022/04/01 01:35:55;;;;;;;;;;;4.30;99.90;;;;;;4994393;28;19925;-86
2022/04/01 01:38:22;;;;;;;;;;;2.10;99.90;;;;;;4991143;28;19930;-86
2022/04/01 01:40:48;;;;;;;;;;;0.50;99.90;;;;;;4987798;28;19934;-86
2022/04/01 01:43:17;;;;;;;;;;;2.20;99.90;;;;;;4998111;28;20288;-85
2022/04/01 01:45:43;;;;;;;;;;;2.30;99.90;;;;;;4998144;28;19973;-86
2022/04/01 01:48:10;;;;;;;;;;;2.10;99.90;;;;;;4997548;28;19969;-88
2022/04/01 01:56:05;;;;;;;;;;;2.30;99.90;;;;;;4997555;28;20330;-86
2022/04/01 01:58:34;;;;;;;;;;;2.70;99.90;;;;;;4994445;28;19933;-86
2022/04/01 02:01:00;;;;;;;;;;;2.20;99.90;;;;;;4977667;28;19933;-85
2022/04/01 02:03:27;;;;;;;;;;;2.20;99.90;;;;;;4977827;28;20388;-87
2022/04/01 02:05:54;;;;;;;;;;;2.20;99.90;;;;;;4977891;28;19973;-87
2022/04/01 02:08:21;;;;;;;;;;;2.20;99.90;;;;;;4977558;28;20396;-87
2022/04/01 02:10:47;;;;;;;;;;;3.30;99.90;;;;;;4977530;28;20578;-86
2022/04/01 02:13:14;;;;;;;;;;;2.10;99.90;;;;;;4977886;28;20299;-86
2022/04/01 02:15:42;;;;;;;;;;;2.10;99.90;;;;;;4978008;28;20364;-87
2022/04/01 02:18:10;;;;;;;;;;;2.60;99.90;;;;;;4978063;28;19996;-88
2022/04/01 02:20:37;;;;;;;;;;;2.50;99.90;;;;;;4996385;28;19926;-87
2022/04/01 02:23:04;;;;;;;;;;;2.10;99.90;;;;;;4997165;28;19925;-86
2022/04/01 02:25:31;;;;;;;;;;;1.90;99.90;;;;;;4995386;28;20049;-87
2022/04/01 02:27:59;;;;;;;;;;;1.90;99.90;;;;;;4996748;28;20376;-86
2022/04/01 02:30:26;;;;;;;;;;;0.40;99.90;;;;;;4996855;28;19926;-87
2022/04/01 02:32:54;;;;;;;;;;;1.80;99.90;;;;;;4985213;28;19926;-86
2022/04/01 02:35:21;;;;;;;;;;;2.00;99.90;;;;;;4977450;28;20384;-86
2022/04/01 02:37:47;;;;;;;;;;;2.10;99.90;;;;;;4978294;28;19926;-86
2022/04/01 02:40:15;;;;;;;;;;;3.20;99.90;;;;;;4977756;28;19926;-87
2022/04/01 02:42:42;;;;;;;;;;;2.20;99.90;;;;;;4977710;28;19930;-87
2022/04/01 02:45:09;;;;;;;;;;;1.60;99.90;;;;;;4989417;28;20017;-86
2022/04/01 02:47:36;;;;;;;;;;;2.20;99.90;;;;;;4996897;28;19932;-87
2022/04/01 02:50:04;;;;;;;;;;;4.60;99.90;;;;;;4978824;28;19930;-86
2022/04/01 02:52:34;;;;;;;;;;;2.30;99.90;;;;;;4977385;28;19926;-86
2022/04/01 02:55:00;;;;;;;;;;;3.40;99.90;;;;;;4977175;28;19926;-86
2022/04/01 02:57:28;;;;;;;;;;;2.30;99.90;;;;;;4977651;28;19926;-86
2022/04/01 02:59:54;;;;;;;;;;;2.60;99.90;;;;;;4993746;28;19926;-87
2022/04/01 03:02:22;;;;;;;;;;;2.30;99.90;;;;;;4996680;28;19925;-86
2022/04/01 03:04:48;;;;;;;;;;;2.50;99.90;;;;;;4997280;28;20025;-88
2022/04/01 03:07:17;;;;;;;;;;;2.50;99.90;;;;;;4996930;28;19937;-87
2022/04/01 03:09:43;;;;;;;;;;;2.80;99.90;;;;;;4987948;28;19926;-86
2022/04/01 03:12:11;;;;;;;;;;;4.20;99.90;;;;;;4983805;28;19938;-86
2022/04/01 03:14:38;;;;;;;;;;;2.00;99.90;;;;;;4983217;28;19927;-86
2022/04/01 03:17:05;;;;;;;;;;;0.80;99.90;;;;;;4982188;28;19948;-87
2022/04/01 03:19:31;;;;;;;;;;;4.20;99.90;;;;;;4987575;28;19988;-86
2022/04/01 03:22:00;;;;;;;;;;;1.80;99.90;;;;;;4996514;28;19981;-87
2022/04/01 03:24:28;;;;;;;;;;;3.50;99.90;;;;;;4996233;28;19932;-87
2022/04/01 03:26:55;;;;;;;;;;;2.60;99.90;;;;;;4993635;28;19937;-86
2022/04/01 03:29:21;;;;;;;;;;;1.60;99.90;;;;;;4976514;28;20229;-87
2022/04/01 03:31:51;;;;;;;;;;;1.40;99.90;;;;;;4976766;28;19973;-87
2022/04/01 03:34:18;;;;;;;;;;;2.20;99.90;;;;;;4976495;28;19930;-87
2022/04/01 03:36:45;;;;;;;;;;;0.70;99.90;;;;;;4976988;28;19926;-87
2022/04/01 03:39:12;;;;;;;;;;;1.30;99.90;;;;;;4996302;28;19926;-86
2022/04/01 03:41:40;;;;;;;;;;;1.30;99.90;;;;;;4976803;28;19940;-86
2022/04/01 03:44:09;;;;;;;;;;;1.30;99.90;;;;;;4976446;28;19976;-87
2022/04/01 03:46:44;;;;;;;;;;;1.20;99.90;;;;;;4976583;28;19980;-86
2022/04/01 03:49:13;;;;;;;;;;;2.80;99.90;;;;;;4976311;28;19989;-87
2022/04/01 03:51:42;;;;;;;;;;;1.40;99.90;;;;;;4976027;28;19930;-87
2022/04/01 03:54:10;;;;;;;;;;;3.10;99.90;;;;;;4976026;28;19930;-85
2022/04/01 03:56:37;;;;;;;;;;;1.40;99.90;;;;;;4976047;28;20380;-87
2022/04/01 03:59:06;;;;;;;;;;;1.40;99.90;;;;;;4996236;28;19925;-87
2022/04/01 04:01:33;;;;;;;;;;;2.20;99.90;;;;;;4995640;28;19972;-88
2022/04/01 04:04:01;;;;;;;;;;;1.60;99.90;;;;;;4995464;28;19934;-88
2022/04/01 04:06:28;;;;;;;;;;;2.00;99.90;;;;;;4995214;28;19930;-86
2022/04/01 04:08:57;;;;;;;;;;;2.80;99.90;;;;;;4994851;28;20341;-87
2022/04/01 04:11:24;;;;;;;;;;;1.70;99.90;;;;;;4995370;28;19980;-87
2022/04/01 04:13:52;;;;;;;;;;;1.50;99.90;;;;;;4995246;28;19980;-87
2022/04/01 04:16:25;;;;;;;;;;;1.40;99.90;;;;;;4994808;28;19925;-86
2022/04/01 04:18:53;;;;;;;;;;;1.30;99.90;;;;;;4993048;28;19997;-87
2022/04/01 04:21:25;;;;;;;;;;;1.20;99.90;;;;;;4978954;28;19930;-87
2022/04/01 04:23:55;;;;;;;;;;;2.80;99.90;;;;;;4975178;28;20361;-87
2022/04/01 04:26:24;;;;;;;;;;;2.60;99.90;;;;;;4975153;28;19997;-87
2022/04/01 04:28:56;;;;;;;;;;;1.30;99.90;;;;;;4989088;28;20454;-86
2022/04/01 04:31:26;;;;;;;;;;;2.60;99.90;;;;;;4994510;28;19930;-88
2022/04/01 04:33:55;;;;;;;;;;;1.60;99.90;;;;;;4995385;28;20311;-87
2022/04/01 04:36:27;;;;;;;;;;;2.70;99.90;;;;;;4994886;28;19926;-86
2022/04/01 04:38:53;;;;;;;;;;;1.90;99.90;;;;;;4981023;28;19926;-88
2022/04/01 04:41:21;;;;;;;;;;;1.10;99.90;;;;;;4975153;28;20013;-87
2022/04/01 04:43:48;;;;;;;;;;;1.80;99.90;;;;;;4975267;28;20400;-84
2022/04/01 04:46:15;;;;;;;;;;;3.20;99.90;;;;;;4975440;28;19934;-85
2022/04/01 04:48:45;;;;;;;;;;;1.90;99.90;;;;;;4975531;28;19980;-85
2022/04/01 04:51:12;;;;;;;;;;;3.10;99.90;;;;;;4975266;28;19926;-85
2022/04/01 04:53:39;;;;;;;;;;;3.20;99.90;;;;;;4975420;28;19930;-85
2022/04/01 04:56:07;;;;;;;;;;;1.20;99.90;;;;;;4975326;28;19926;-85
2022/04/01 04:58:39;;;;;;;;;;;1.60;99.90;;;;;;4985743;28;19980;-85
2022/04/01 05:01:10;;;;;;;;;;;2.30;99.90;;;;;;4994676;28;20273;-86
2022/04/01 05:03:54;;;;;;;;;;;2.80;99.90;;;;;;4994819;28;19984;-85
2022/04/01 05:06:25;;;;;;;;;;;1.70;99.90;;;;;;4994881;28;19934;-87
2022/04/01 05:08:59;;;;;;;;;;;0.30;99.90;;;;;;4981269;28;19949;-85
2022/04/01 05:11:30;;;;;;;;;;;1.40;99.90;;;;;;4974866;28;19949;-85
2022/04/01 05:13:59;;;;;;;;;;;1.30;99.90;;;;;;4974730;28;20017;-87
2022/04/01 05:16:31;;;;;;;;;;;1.30;99.90;;;;;;4975217;28;19981;-87
2022/04/01 05:19:03;;;;;;;;;;;-0.40;99.90;;;;;;4987570;28;19926;-87
2022/04/01 05:21:35;;;;;;;;;;;3.70;99.90;;;;;;4993839;28;20372;-86
2022/04/01 05:24:04;;;;;;;;;;;1.20;99.90;;;;;;4994188;28;19925;-86
2022/04/01 05:26:40;;;;;;;;;;;0.70;99.90;;;;;;4994540;28;19934;-85
2022/04/01 05:29:10;;;;;;;;;;;0.10;99.90;;;;;;4983754;28;19926;-86
2022/04/01 05:31:40;;;;;;;;;;;0.80;99.90;;;;;;4980649;28;19997;-86
2022/04/01 05:34:09;;;;;;;;;;;0.80;99.90;;;;;;4981051;28;19965;-85
2022/04/01 05:36:37;;;;;;;;;;;0.70;99.90;;;;;;4978273;28;19981;-86
2022/04/01 05:39:04;;;;;;;;;;;0.60;99.90;;;;;;4988463;28;19965;-85
2022/04/01 05:41:31;;;;;;;;;;;-0.10;99.90;;;;;;4976091;28;19970;-87
2022/04/01 05:43:58;;;;;;;;;;;0.70;99.90;;;;;;4974923;28;19926;-86
2022/04/01 05:46:25;;;;;;;;;;;0.60;99.90;;;;;;4974520;28;19926;-86
2022/04/01 05:48:53;;;;;;;;;;;0.60;99.90;;;;;;4985177;28;19930;-85
2022/04/01 05:51:22;;;;;;;;;;;0.50;99.90;;;;;;4994126;28;19980;-87
2022/04/01 05:53:49;;;;;;;;;;;0.90;99.90;;;;;;4994072;28;19926;-86
2022/04/01 05:56:16;;;;;;;;;;;0.70;99.90;;;;;;4993886;28;19944;-86
2022/04/01 05:58:43;;;;;;;;;;;2.40;99.90;;;;;;4985005;28;19926;-86
2022/04/01 06:01:13;;;;;;;;;;;0.80;99.90;;;;;;4974327;28;19929;-86
2022/04/01 06:03:54;;;;;;;;;;;-0.50;99.90;;;;;;4975087;28;19930;-86
2022/04/01 06:06:28;;;;;;;;;;;0.90;99.90;;;;;;4977799;28;19937;-86
2022/04/01 06:08:58;;;;;;;;;;;0.20;99.90;;;;;;4993797;28;19925;-87
2022/04/01 06:11:32;;;;;;;;;;;2.70;99.90;;;;;;4993857;28;19926;-86
2022/04/01 06:14:02;;;;;;;;;;;1.10;99.90;;;;;;4993837;28;19925;-86
2022/04/01 06:16:32;;;;;;;;;;;1.10;99.90;;;;;;4990478;28;20016;-86
2022/04/01 06:19:04;;;;;;;;;;;1.10;99.90;;;;;;4974479;28;19926;-86
2022/04/01 06:21:37;;;;;;;;;;;1.20;99.90;;;;;;4974241;28;19941;-86
2022/04/01 06:24:08;;;;;;;;;;;1.20;99.90;;;;;;4974017;28;20289;-87
2022/04/01 06:26:38;;;;;;;;;;;1.40;99.90;;;;;;4978621;28;19972;-87
2022/04/01 06:29:09;;;;;;;;;;;1.50;99.90;;;;;;4997407;28;19926;-85
2022/04/01 06:31:36;;;;;;;;;;;1.60;99.90;;;;;;4997513;28;20540;-85
2022/04/01 06:34:04;;;;;;;;;;;1.60;99.90;;;;;;4996952;28;19926;-88
2022/04/01 06:36:35;;;;;;;;;;;1.60;99.90;;;;;;4994421;28;19934;-86
2022/04/01 06:39:03;;;;;;;;;;;1.70;99.90;;;;;;4977414;28;19926;-87
2022/04/01 06:41:31;;;;;;;;;;;1.70;99.90;;;;;;4977272;28;19934;-88
2022/04/01 06:43:58;;;;;;;;;;;1.90;99.90;;;;;;4978563;28;19953;-87
2022/04/01 06:46:26;;;;;;;;;;;1.80;99.90;;;;;;4977256;28;20037;-87
2022/04/01 06:48:54;;;;;;;;;;;-0.10;99.90;;;;;;4976954;28;19930;-87
2022/04/01 06:51:21;;;;;;;;;;;4.20;99.90;;;;;;4978200;28;19934;-87
2022/04/01 06:53:50;;;;;;;;;;;2.00;99.90;;;;;;4977743;28;19926;-88
2022/04/01 06:56:16;;;;;;;;;;;2.10;99.90;;;;;;4977180;28;20381;-85
2022/04/01 06:58:45;;;;;;;;;;;2.00;99.90;;;;;;4995986;28;19926;-88
2022/04/01 07:01:14;;;;;;;;;;;2.60;99.90;;;;;;4997429;28;19933;-87
2022/04/01 07:03:41;;;;;;;;;;;2.10;99.90;;;;;;4996891;28;19930;-88
2022/04/01 07:06:08;;;;;;;;;;;4.30;99.90;;;;;;4984335;28;19941;-88
2022/04/01 07:08:35;;;;;;;;;;;2.70;99.90;;;;;;4978489;28;19926;-84
2022/04/01 07:11:04;;;;;;;;;;;2.40;99.90;;;;;;4978513;28;19926;-85
2022/04/01 07:13:32;;;;;;;;;;;2.90;99.90;;;;;;4978138;28;19926;-85
2022/04/01 07:16:00;;;;;;;;;;;2.30;99.90;;;;;;4989381;28;19926;-87
2022/04/01 07:18:27;;;;;;;;;;;2.50;99.90;;;;;;4992881;28;19926;-85
2022/04/01 07:20:54;;;;;;;;;;;2.60;99.90;;;;;;4996485;28;20395;-86
2022/04/01 07:23:21;;;;;;;;;;;2.60;99.90;;;;;;4992626;28;19930;-86
2022/04/01 07:25:48;;;;;;;;;;;3.00;99.90;;;;;;4995792;28;19980;-86
2022/04/01 07:28:16;;;;;;;;;;;1.90;99.90;;;;;;4996975;28;20347;-86
2022/04/01 07:30:45;;;;;;;;;;;2.90;99.90;;;;;;4996185;28;19925;-86
2022/04/01 07:33:11;;;;;;;;;;;3.00;99.90;;;;;;5001066;28;19938;-85
2022/04/01 07:35:38;;;;;;;;;;;4.30;99.90;;;;;;4976898;28;20373;-84
2022/04/01 07:38:05;;;;;;;;;;;4.30;99.90;;;;;;4985468;28;19929;-86
2022/04/01 07:40:32;;;;;;;;;;;3.20;99.90;;;;;;4987305;28;19989;-86
2022/04/01 07:42:59;;;;;;;;;;;3.50;99.90;;;;;;4976736;28;19926;-87
2022/04/01 07:45:27;;;;;;;;;;;3.60;99.90;;;;;;4992407;28;20372;-86
2022/04/01 07:47:54;;;;;;;;;;;3.80;99.90;;;;;;4977735;28;19945;-87
2022/04/01 07:50:22;;;;;;;;;;;4.00;99.90;;;;;;4990859;28;19941;-85
2022/04/01 07:52:49;;;;;;;;;;;4.60;99.90;;;;;;4947427;28;20089;-86
2022/04/01 07:55:17;;;;;;;;;;;4.50;99.90;;;;;;4957709;28;20303;-88
2022/04/01 07:57:44;;;;;;;;;;;4.70;99.90;;;;;;4942181;28;20534;-87
2022/04/01 08:00:11;;;;;;;;;;;4.40;99.90;;;;;;4981357;28;19926;-87
2022/04/01 08:02:40;;;;;;;;;;;4.80;99.90;;;;;;4988748;28;20658;-86
2022/04/01 08:05:07;;;;;;;;;;;3.00;99.90;;;;;;4989836;28;20016;-85
2022/04/01 08:07:36;;;;;;;;;;;4.30;99.90;;;;;;4985555;28;19930;-85
2022/04/01 08:10:07;;;;;;;;;;;4.50;99.90;;;;;;4989714;28;19926;-84
2022/04/01 08:12:35;;;;;;;;;;;4.30;99.90;;;;;;4990808;28;20348;-85
2022/04/01 08:15:15;;;;;;;;;;;3.50;99.90;;;;;;4993832;28;19976;-88
2022/04/01 08:17:44;;;;;;;;;;;4.70;99.90;;;;;;4985433;28;19941;-85
2022/04/01 08:20:12;;;;;;;;;;;4.40;99.90;;;;;;4986750;28;19933;-87
2022/04/01 08:22:39;;;;;;;;;;;4.60;99.90;;;;;;4978191;28;20036;-85
2022/04/01 08:25:07;;;;;;;;;;;5.10;99.90;;;;;;4966233;28;19926;-86
2022/04/01 08:27:34;;;;;;;;;;;4.80;99.90;;;;;;4985502;28;19933;-85
2022/04/01 08:30:01;;;;;;;;;;;4.40;99.90;;;;;;4969959;28;19933;-84
2022/04/01 08:32:30;;;;;;;;;;;5.30;99.90;;;;;;4985948;28;19973;-84
2022/04/01 08:34:58;;;;;;;;;;;4.80;99.90;;;;;;4965397;28;19941;-86
2022/04/01 08:37:24;;;;;;;;;;;5.10;99.90;;;;;;4978094;28;20036;-85
2022/04/01 08:39:53;;;;;;;;;;;5.20;99.90;;;;;;4979736;28;20037;-86
2022/04/01 08:42:19;;;;;;;;;;;3.70;99.90;;;;;;4980865;28;19925;-87
2022/04/01 08:44:47;;;;;;;;;;;5.80;99.90;;;;;;4985026;28;19941;-87
2022/04/01 08:47:14;;;;;;;;;;;5.20;99.90;;;;;;4978756;28;19965;-86
2022/04/01 08:49:44;;;;;;;;;;;4.70;99.90;;;;;;4979548;28;19980;-88
2022/04/01 08:52:16;;;;;;;;;;;6.80;99.90;;;;;;4984522;28;20273;-88
2022/04/01 08:54:45;;;;;;;;;;;4.80;99.90;;;;;;4968854;28;19981;-86
2022/04/01 08:57:17;;;;;;;;;;;5.50;99.90;;;;;;4978517;28;19952;-87
2022/04/01 08:59:44;;;;;;;;;;;5.50;99.90;;;;;;4986394;28;19926;-89
2022/04/01 09:02:11;;;;;;;;;;;4.00;99.90;;;;;;4976265;28;19926;-85
2022/04/01 09:04:38;;;;;;;;;;;5.20;99.90;;;;;;4983524;28;19925;-86
2022/04/01 09:07:12;;;;;;;;;;;5.30;99.90;;;;;;4985036;28;19932;-88
2022/04/01 09:09:40;;;;;;;;;;;5.50;99.90;;;;;;4979435;28;19930;-87
2022/04/01 09:12:11;;;;;;;;;;;5.40;99.90;;;;;;4982378;28;20427;-88
2022/04/01 09:14:38;;;;;;;;;;;5.20;99.90;;;;;;4983848;28;20028;-88
2022/04/01 09:17:05;;;;;;;;;;;5.60;99.90;;;;;;4983870;28;19930;-87
2022/04/01 09:19:33;;;;;;;;;;;5.70;99.90;;;;;;4977882;28;19934;-86
2022/04/01 09:22:15;;;;;;;;;;;5.10;99.90;;;;;;4981066;28;19937;-88
2022/04/01 09:24:54;;;;;;;;;;;6.70;99.90;;;;;;4986978;28;20355;-88
2022/04/01 09:27:35;;;;;;;;;;;5.60;99.90;;;;;;4982412;28;19925;-86
2022/04/01 09:30:01;;;;;;;;;;;5.70;99.90;;;;;;4966300;28;19976;-86
2022/04/01 09:32:36;;;;;;;;;;;5.30;99.90;;;;;;4985783;28;19937;-86
2022/04/01 09:35:03;;;;;;;;;;;5.60;99.90;;;;;;4985563;28;19937;-88
2022/04/01 09:37:36;;;;;;;;;;;5.20;99.90;;;;;;4986312;28;19936;-84
2022/04/01 09:40:05;;;;;;;;;;;6.50;99.90;;;;;;4983598;28;19969;-85
2022/04/01 09:42:33;;;;;;;;;;;5.90;99.90;;;;;;4978454;28;19992;-86
2022/04/01 09:45:00;;;;;;;;;;;8.60;99.90;;;;;;4983166;28;19926;-86
2022/04/01 09:47:27;;;;;;;;;;;6.70;99.90;;;;;;4984708;28;20297;-87
2022/04/01 09:49:54;;;;;;;;;;;7.30;99.90;;;;;;4979234;28;19926;-87
2022/04/01 09:52:22;;;;;;;;;;;6.30;99.90;;;;;;4976143;28;20223;-85
2022/04/01 09:54:50;;;;;;;;;;;6.40;99.90;;;;;;4983839;28;19927;-86
2022/04/01 09:57:20;;;;;;;;;;;6.60;99.90;;;;;;4984655;28;19980;-87
2022/04/01 09:59:48;;;;;;;;;;;7.20;99.90;;;;;;4982671;28;19930;-88
2022/04/01 10:02:15;;;;;;;;;;;6.90;99.90;;;;;;4985556;28;19932;-88
2022/04/01 10:04:42;;;;;;;;;;;7.00;99.90;;;;;;4963864;28;19981;-88
2022/04/01 10:07:09;;;;;;;;;;;9.60;99.90;;;;;;4977876;28;19925;-85
2022/04/01 10:09:37;;;;;;;;;;;7.40;99.90;;;;;;4985783;28;19926;-86
2022/04/01 10:12:13;;;;;;;;;;;7.40;99.90;;;;;;4984764;28;19934;-82
2022/04/01 10:14:41;;;;;;;;;;;7.00;99.90;;;;;;4982592;28;20284;-83
2022/04/01 10:17:10;;;;;;;;;;;6.70;99.90;;;;;;4980623;28;20377;-85
2022/04/01 10:19:39;;;;;;;;;;;6.80;99.90;;;;;;4970846;28;19957;-86
2022/04/01 10:22:06;;;;;;;;;;;6.80;99.90;;;;;;4981472;28;19934;-84
2022/04/01 10:24:37;;;;;;;;;;;6.80;99.90;;;;;;4983953;28;19956;-88
2022/04/01 10:27:08;;;;;;;;;;;6.80;99.90;;;;;;4985094;28;19925;-87
2022/04/01 10:29:37;;;;;;;;;;;6.90;99.90;;;;;;4983971;28;19972;-86
2022/04/01 10:32:31;;;;;;;;;;;6.90;99.90;;;;;;4984742;28;19927;-87
2022/04/01 10:35:01;;;;;;;;;;;7.00;99.90;;;;;;4981048;28;19933;-85
2022/04/01 10:37:28;;;;;;;;;;;6.90;99.90;;;;;;4980105;28;19925;-84
2022/04/01 10:40:02;;;;;;;;;;;6.70;99.90;;;;;;4975188;28;20385;-84
2022/04/01 10:42:33;;;;;;;;;;;6.50;99.90;;;;;;4985649;28;19995;-85
2022/04/01 10:45:07;;;;;;;;;;;6.80;99.90;;;;;;4984847;28;19933;-86
2022/04/01 10:53:37;;;;;;;;;;;7.00;99.90;;;;;;4975166;28;19945;-84
2022/04/01 10:56:25;;;;;;;;;;;7.00;99.80;;;;;;4984969;28;19926;-86
2022/04/01 10:59:01;;;;;;;;;;;7.10;99.80;;;;;;4980833;28;19985;-83
2022/04/01 11:01:28;;;;;;;;;;;7.30;99.90;;;;;;4986753;28;19956;-84
2022/04/01 11:04:02;;;;;;;;;;;9.10;99.90;;;;;;4987238;28;19932;-85
2022/04/01 11:06:29;;;;;;;;;;;7.20;99.70;;;;;;4990039;28;19988;-84
2022/04/01 11:08:56;;;;;;;;;;;7.20;99.90;;;;;;4989441;28;19968;-86
2022/04/01 11:11:23;;;;;;;;;;;7.20;99.70;;;;;;4986213;28;19930;-85
2022/04/01 11:14:02;;;;;;;;;;;7.00;99.80;;;;;;4981571;28;20337;-87
2022/04/01 11:16:45;;;;;;;;;;;6.90;99.90;;;;;;4980304;28;20396;-88
2022/04/01 11:19:19;;;;;;;;;;;7.00;99.90;;;;;;4980755;28;20020;-84
2022/04/01 11:21:47;;;;;;;;;;;7.00;99.70;;;;;;4990584;28;19926;-84
2022/04/01 11:24:24;;;;;;;;;;;6.90;99.90;;;;;;4984551;28;19956;-87
2022/04/01 11:26:51;;;;;;;;;;;7.10;99.80;;;;;;4981982;28;19957;-85
2022/04/01 11:29:21;;;;;;;;;;;7.50;99.90;;;;;;4965845;28;20226;-84
2022/04/01 11:31:48;;;;;;;;;;;7.30;99.90;;;;;;4935432;28;19930;-86
2022/04/01 11:34:17;;;;;;;;;;;7.20;99.90;;;;;;4952061;28;19926;-85
2022/04/01 11:36:46;;;;;;;;;;;7.30;99.90;;;;;;4997175;28;20368;-83
2022/04/01 11:39:17;;;;;;;;;;;7.50;99.90;;;;;;4975393;28;20340;-83
2022/04/01 11:41:54;;;;;;;;;;;7.60;99.30;;;;;;4990986;28;19926;-83
2022/04/01 11:44:23;;;;;;;;;;;7.70;98.80;;;;;;4988843;28;19977;-82
2022/04/01 11:46:54;;;;;;;;;;;7.70;98.80;;;;;;4982694;28;20014;-86
2022/04/01 11:49:27;;;;;;;;;;;7.60;98.40;;;;;;4992512;28;19926;-84
2022/04/01 11:51:55;;;;;;;;;;;7.70;97.80;;;;;;4994290;28;19996;-84
2022/04/01 11:54:22;;;;;;;;;;;7.70;98.00;;;;;;4986774;28;19933;-84
2022/04/01 11:56:53;;;;;;;;;;;7.60;98.40;;;;;;4977370;28;19926;-83
2022/04/01 11:59:20;;;;;;;;;;;7.70;98.50;;;;;;5013772;28;19979;-83
2022/04/01 12:01:58;;;;;;;;;;;7.90;98.10;;;;;;4993820;28;19930;-83
2022/04/01 12:04:32;;;;;;;;;;;8.00;98.00;;;;;;4998270;28;19936;-85
2022/04/01 12:09:54;;;;;;;;;;;8.40;96.50;;;;;;4985953;28;20039;-84
2022/04/01 12:12:22;;;;;;;;;;;8.40;96.90;;;;;;4982516;28;19925;-84
2022/04/01 12:14:49;;;;;;;;;;;7.90;96.70;;;;;;4987188;28;19940;-85
2022/04/01 12:17:16;;;;;;;;;;;7.90;97.70;;;;;;4990103;28;20304;-87
2022/04/01 12:19:43;;;;;;;;;;;8.00;97.00;;;;;;4975073;28;19988;-85
2022/04/01 12:22:11;;;;;;;;;;;8.10;96.90;;;;;;4978203;28;19989;-86
2022/04/01 12:24:40;;;;;;;;;;;8.10;96.40;;;;;;4992845;28;20380;-85
2022/04/01 12:27:09;;;;;;;;;;;8.20;96.50;;;;;;4963464;28;20013;-84
2022/04/01 12:29:36;;;;;;;;;;;8.30;95.50;;;;;;4974492;28;20403;-86
2022/04/01 12:32:05;;;;;;;;;;;8.20;95.00;;;;;;4984980;28;19989;-86
2022/04/01 12:34:32;;;;;;;;;;;8.20;95.30;;;;;;4990176;28;19930;-86
2022/04/01 12:37:00;;;;;;;;;;;8.20;95.70;;;;;;4973680;28;19973;-82
2022/04/01 12:39:31;;;;;;;;;;;8.20;95.20;;;;;;4988273;28;19927;-86
2022/04/01 12:41:59;;;;;;;;;;;8.20;93.80;;;;;;4983002;28;19934;-85
2022/04/01 12:44:29;;;;;;;;;;;8.20;93.20;;;;;;4984118;28;20017;-86
2022/04/01 12:46:59;;;;;;;;;;;8.30;93.10;;;;;;4989682;28;19926;-88
2022/04/01 12:49:27;;;;;;;;;;;8.40;92.10;;;;;;4983133;28;20020;-87
2022/04/01 12:51:58;;;;;;;;;;;8.50;92.40;;;;;;4987891;28;19926;-88
2022/04/01 12:54:43;;;;;;;;;;;8.50;92.60;;;;;;4969810;28;21968;-85
2022/04/01 12:57:16;;;;;;;;;;;8.50;93.90;;;;;;4985523;28;20383;-87
2022/04/01 12:59:46;;;;;;;;;;;8.40;94.40;;;;;;4989330;28;19962;-87
2022/04/01 13:02:21;;;;;;;;;;;8.50;94.40;;;;;;4990536;28;19993;-89
2022/04/01 13:04:49;;;;;;;;;;;8.50;94.20;;;;;;4986476;28;19952;-85
2022/04/01 13:07:18;;;;;;;;;;;8.60;93.80;;;;;;4983120;28;19926;-86
2022/04/01 13:09:48;;;;;;;;;;;8.80;93.60;;;;;;4983301;28;19933;-85
2022/04/01 13:12:16;;;;;;;;;;;8.90;92.10;;;;;;4992715;28;19930;-86
2022/04/01 13:14:43;;;;;;;;;;;9.00;91.90;;;;;;4984925;28;19930;-88
2022/04/01 13:17:14;;;;;;;;;;;9.80;90.60;;;;;;4984706;28;19925;-84
2022/04/01 13:19:42;;;;;;;;;;;9.30;91.50;;;;;;4977323;28;20345;-86
2022/04/01 13:22:10;;;;;;;;;;;8.70;91.40;;;;;;4983584;28;19938;-90
2022/04/01 13:24:38;;;;;;;;;;;8.70;92.20;;;;;;4982154;28;19927;-87
2022/04/01 13:27:10;;;;;;;;;;;8.60;92.40;;;;;;4979794;28;19941;-86
2022/04/01 13:29:36;;;;;;;;;;;8.60;92.50;;;;;;4984251;28;19940;-83
2022/04/01 13:32:04;;;;;;;;;;;8.70;92.50;;;;;;4979033;28;19927;-88
2022/04/01 13:34:31;;;;;;;;;;;8.80;92.20;;;;;;4965943;28;19933;-85
2022/04/01 13:36:58;;;;;;;;;;;8.90;92.50;;;;;;4989147;28;19926;-86
2022/04/01 13:39:25;;;;;;;;;;;9.00;91.70;;;;;;4987363;28;19952;-87
2022/04/01 13:41:52;;;;;;;;;;;9.40;91.80;;;;;;4987578;28;20002;-86
2022/04/01 13:44:21;;;;;;;;;;;9.00;90.80;;;;;;4992029;28;19961;-87
2022/04/01 13:46:48;;;;;;;;;;;9.10;90.20;;;;;;4989089;28;20016;-88
2022/04/01 13:49:15;;;;;;;;;;;9.20;91.50;;;;;;4995927;28;19929;-89
2022/04/01 13:51:42;;;;;;;;;;;9.30;91.50;;;;;;4984991;28;19933;-88
2022/04/01 13:54:09;;;;;;;;;;;9.20;91.20;;;;;;4983874;28;19965;-86
2022/04/01 13:56:39;;;;;;;;;;;9.60;91.20;;;;;;4983784;28;19930;-82
2022/04/01 13:59:06;;;;;;;;;;;9.40;90.30;;;;;;4987335;28;19941;-87
2022/04/01 14:01:34;;;;;;;;;;;9.10;90.30;;;;;;4985240;28;20380;-89
2022/04/01 14:04:02;;;;;;;;;;;9.40;90.50;;;;;;4990414;28;20459;-88
2022/04/01 14:06:30;;;;;;;;;;;9.30;91.30;;;;;;4981066;28;19933;-86
2022/04/01 14:08:57;;;;;;;;;;;9.70;92.00;;;;;;4984425;28;19937;-86
2022/04/01 14:11:24;;;;;;;;;;;9.80;91.30;;;;;;4988794;28;19929;-86
2022/04/01 14:13:51;;;;;;;;;;;9.70;91.30;;;;;;4981985;28;19977;-84
2022/04/01 14:16:18;;;;;;;;;;;12.00;91.30;;;;;;4979878;28;19930;-85
2022/04/01 14:18:46;;;;;;;;;;;9.30;90.60;;;;;;4982054;28;19935;-85
2022/04/01 14:21:13;;;;;;;;;;;9.50;91.80;;;;;;4987522;28;20233;-84
2022/04/01 14:23:40;;;;;;;;;;;9.10;91.60;;;;;;4990915;28;19933;-87
2022/04/01 14:26:08;;;;;;;;;;;9.40;92.20;;;;;;4984393;28;19980;-87
2022/04/01 14:28:35;;;;;;;;;;;9.30;92.10;;;;;;4984076;28;19937;-85
2022/04/01 14:31:02;;;;;;;;;;;9.40;92.50;;;;;;4982934;28;19933;-87
2022/04/01 14:33:30;;;;;;;;;;;9.30;91.70;;;;;;4981589;28;20332;-86
2022/04/01 14:35:58;;;;;;;;;;;9.80;92.00;;;;;;4971275;28;20302;-86
2022/04/01 14:38:25;;;;;;;;;;;9.40;91.50;;;;;;4986160;28;19925;-86
2022/04/01 14:40:53;;;;;;;;;;;9.40;91.70;;;;;;4986819;28;19933;-85
2022/04/01 14:43:20;;;;;;;;;;;9.40;92.20;;;;;;4982563;28;19930;-87
2022/04/01 14:45:47;;;;;;;;;;;9.50;92.10;;;;;;4984008;28;19969;-82
2022/04/01 14:48:14;;;;;;;;;;;9.30;91.70;;;;;;4983198;28;19926;-84
2022/04/01 14:50:43;;;;;;;;;;;9.40;92.20;;;;;;4986714;28;20416;-85
2022/04/01 14:53:12;;;;;;;;;;;9.40;93.00;;;;;;4981397;28;19941;-86
2022/04/01 14:55:39;;;;;;;;;;;9.40;92.40;;;;;;4983458;28;20287;-85